This is the latest recevied weather packets stored in our database for station/object KC4LZN. If no packets are shown the sender has not sent any weather packets the latest 10 day(s).
| Time | Temp. | Humidity | Pressure | Rain* | Wind** | Luminosity | Snow |
|---|---|---|---|---|---|---|---|
| 1777154162 | 27.22° C | 62% | 1010.7 hPa | 0 mm | - | 105 W/m² | - |
| 1777153858 | 27.22° C | 63% | 1010.5 hPa | 0 mm | - | 328 W/m² | - |
| 1777153555 | 27.22° C | 64% | 1010.6 hPa | 0 mm | - | 348 W/m² | - |
| 1777153250 | 27.22° C | 62% | 1010.8 hPa | 0 mm | - | 402 W/m² | - |
| 1777152948 | 26.11° C | 65% | 1011 hPa | 0 mm | - | 398 W/m² | - |
| 1777152644 | 25.56° C | 67% | 1011 hPa | 0 mm | - | 255 W/m² | - |
| 1777152341 | 25° C | 66% | 1011 hPa | 0 mm | - | 171 W/m² | - |
| 1777152036 | 25° C | 69% | 1010.9 hPa | 0 mm | - | 97 W/m² | - |
| 1777151731 | 25° C | 69% | 1011.1 hPa | 0 mm | - | 71 W/m² | - |
| 1777151429 | 25.56° C | 68% | 1011.2 hPa | 0 mm | - | 53 W/m² | - |
| 1777151125 | 25.56° C | 67% | 1011.2 hPa | 0 mm | - | 58 W/m² | - |
| 1777150820 | 26.11° C | 66% | 1011 hPa | 0 mm | - | 63 W/m² | - |
| 1777150514 | 26.67° C | 63% | 1010.9 hPa | 0 mm | - | 77 W/m² | - |
| 1777150211 | 26.67° C | 63% | 1011 hPa | 0 mm | - | 142 W/m² | - |
| 1777149909 | 26.67° C | 61% | 1010.8 hPa | 0 mm | - | 213 W/m² | - |
| 1777149604 | 26.67° C | 60% | 1010.7 hPa | 0 mm | - | 220 W/m² | - |
| 1777149302 | 27.22° C | 59% | 1010.8 hPa | 0 mm | - | 237 W/m² | - |
| 1777149001 | 27.22° C | 59% | 1010.7 hPa | 0 mm | - | 278 W/m² | - |
| 1777148697 | 28.33° C | 56% | 1010.7 hPa | 0 mm | - | 214 W/m² | - |
| 1777148393 | 27.78° C | 56% | 1010.7 hPa | 0 mm | - | 198 W/m² | - |
| 1777148089 | 27.22° C | 55% | 1010.8 hPa | 0 mm | - | 245 W/m² | - |
| 1777147786 | 27.22° C | 55% | 1010.8 hPa | 0 mm | - | 311 W/m² | - |
| 1777147482 | 27.78° C | 52% | 1010.6 hPa | 0 mm | - | 156 W/m² | - |
| 1777147177 | 29.44° C | 50% | 1010.8 hPa | 0 mm | - | 132 W/m² | - |
| 1777146873 | 29.44° C | 50% | 1010.7 hPa | 0 mm | - | 125 W/m² | - |
* Rain latest hour (hover to see other rain measurements)
** Current wind speed in m/s (hover to see current wind gust speed)